sensor_id;sensor_type;location;lat;lon;timestamp;P1;durP1;ratioP1;P2;durP2;ratioP2
27794;SDS011;15176;50.844;4.412;2023-06-14T00:00:47;8.48;;;5.55;;
27794;SDS011;15176;50.844;4.412;2023-06-14T00:03:13;9.95;;;5.30;;
27794;SDS011;15176;50.844;4.412;2023-06-14T00:05:42;15.68;;;5.43;;
27794;SDS011;15176;50.844;4.412;2023-06-14T00:08:08;10.18;;;5.60;;
27794;SDS011;15176;50.844;4.412;2023-06-14T00:10:38;9.80;;;5.47;;
27794;SDS011;15176;50.844;4.412;2023-06-14T00:13:06;11.05;;;5.72;;
27794;SDS011;15176;50.844;4.412;2023-06-14T00:15:35;12.98;;;5.32;;
27794;SDS011;15176;50.844;4.412;2023-06-14T00:18:01;10.85;;;5.35;;
27794;SDS011;15176;50.844;4.412;2023-06-14T00:20:30;13.50;;;5.55;;
27794;SDS011;15176;50.844;4.412;2023-06-14T00:23:01;8.52;;;5.75;;
27794;SDS011;15176;50.844;4.412;2023-06-14T00:25:27;11.48;;;5.63;;
27794;SDS011;15176;50.844;4.412;2023-06-14T00:27:57;9.27;;;5.18;;
27794;SDS011;15176;50.844;4.412;2023-06-14T00:30:23;9.23;;;5.65;;
27794;SDS011;15176;50.844;4.412;2023-06-14T00:32:49;13.38;;;5.53;;
27794;SDS011;15176;50.844;4.412;2023-06-14T00:35:15;9.85;;;6.05;;
27794;SDS011;15176;50.844;4.412;2023-06-14T00:37:40;9.02;;;5.38;;
27794;SDS011;15176;50.844;4.412;2023-06-14T00:40:06;10.43;;;5.75;;
27794;SDS011;15176;50.844;4.412;2023-06-14T00:42:32;15.15;;;6.05;;
27794;SDS011;15176;50.844;4.412;2023-06-14T00:44:59;12.80;;;5.50;;
27794;SDS011;15176;50.844;4.412;2023-06-14T00:47:25;18.75;;;5.78;;
27794;SDS011;15176;50.844;4.412;2023-06-14T00:49:52;17.52;;;6.22;;
27794;SDS011;15176;50.844;4.412;2023-06-14T00:52:20;12.73;;;6.28;;
27794;SDS011;15176;50.844;4.412;2023-06-14T00:54:47;9.48;;;5.93;;
27794;SDS011;15176;50.844;4.412;2023-06-14T00:57:13;9.27;;;5.60;;
27794;SDS011;15176;50.844;4.412;2023-06-14T00:59:42;13.88;;;5.68;;
27794;SDS011;15176;50.844;4.412;2023-06-14T01:02:10;6.93;;;4.85;;
27794;SDS011;15176;50.844;4.412;2023-06-14T01:04:36;9.85;;;5.97;;
27794;SDS011;15176;50.844;4.412;2023-06-14T01:10:31;9.70;;;5.75;;
27794;SDS011;15176;50.844;4.412;2023-06-14T01:12:57;12.38;;;5.97;;
27794;SDS011;15176;50.844;4.412;2023-06-14T01:15:24;13.50;;;5.85;;
27794;SDS011;15176;50.844;4.412;2023-06-14T01:17:51;9.27;;;5.78;;
27794;SDS011;15176;50.844;4.412;2023-06-14T01:20:21;9.80;;;6.15;;
27794;SDS011;15176;50.844;4.412;2023-06-14T01:22:51;12.77;;;6.05;;
27794;SDS011;15176;50.844;4.412;2023-06-14T01:25:18;11.65;;;5.68;;
27794;SDS011;15176;50.844;4.412;2023-06-14T01:27:51;11.70;;;6.03;;
27794;SDS011;15176;50.844;4.412;2023-06-14T01:30:17;15.70;;;6.80;;
27794;SDS011;15176;50.844;4.412;2023-06-14T01:32:45;11.63;;;6.82;;
27794;SDS011;15176;50.844;4.412;2023-06-14T01:35:12;11.98;;;6.50;;
27794;SDS011;15176;50.844;4.412;2023-06-14T01:37:37;10.73;;;6.15;;
27794;SDS011;15176;50.844;4.412;2023-06-14T01:40:05;11.35;;;6.05;;
27794;SDS011;15176;50.844;4.412;2023-06-14T01:42:36;11.40;;;6.43;;
27794;SDS011;15176;50.844;4.412;2023-06-14T01:45:06;12.32;;;6.18;;
27794;SDS011;15176;50.844;4.412;2023-06-14T01:47:34;10.27;;;6.60;;
27794;SDS011;15176;50.844;4.412;2023-06-14T01:50:03;13.10;;;6.15;;
27794;SDS011;15176;50.844;4.412;2023-06-14T01:52:29;18.30;;;6.75;;
27794;SDS011;15176;50.844;4.412;2023-06-14T01:54:55;11.32;;;5.55;;
27794;SDS011;15176;50.844;4.412;2023-06-14T01:57:21;10.32;;;5.38;;
27794;SDS011;15176;50.844;4.412;2023-06-14T01:59:48;14.43;;;6.72;;
27794;SDS011;15176;50.844;4.412;2023-06-14T02:02:14;10.85;;;6.45;;
27794;SDS011;15176;50.844;4.412;2023-06-14T02:04:40;13.48;;;7.05;;
27794;SDS011;15176;50.844;4.412;2023-06-14T02:07:07;15.40;;;6.43;;
27794;SDS011;15176;50.844;4.412;2023-06-14T02:09:33;11.43;;;6.50;;
27794;SDS011;15176;50.844;4.412;2023-06-14T02:11:59;12.57;;;6.28;;
27794;SDS011;15176;50.844;4.412;2023-06-14T02:14:25;12.05;;;6.65;;
27794;SDS011;15176;50.844;4.412;2023-06-14T02:16:52;14.52;;;7.13;;
27794;SDS011;15176;50.844;4.412;2023-06-14T02:19:18;11.27;;;7.20;;
27794;SDS011;15176;50.844;4.412;2023-06-14T02:21:45;16.73;;;6.90;;
27794;SDS011;15176;50.844;4.412;2023-06-14T02:24:12;14.38;;;7.25;;
27794;SDS011;15176;50.844;4.412;2023-06-14T02:26:38;14.00;;;6.90;;
27794;SDS011;15176;50.844;4.412;2023-06-14T02:29:05;15.77;;;7.13;;
27794;SDS011;15176;50.844;4.412;2023-06-14T02:31:34;12.63;;;6.97;;
27794;SDS011;15176;50.844;4.412;2023-06-14T02:34:00;16.80;;;7.43;;
27794;SDS011;15176;50.844;4.412;2023-06-14T02:36:26;13.07;;;7.75;;
27794;SDS011;15176;50.844;4.412;2023-06-14T02:38:52;14.82;;;7.57;;
27794;SDS011;15176;50.844;4.412;2023-06-14T02:41:19;14.05;;;6.80;;
27794;SDS011;15176;50.844;4.412;2023-06-14T02:43:44;13.55;;;7.32;;
27794;SDS011;15176;50.844;4.412;2023-06-14T02:46:10;9.40;;;6.78;;
27794;SDS011;15176;50.844;4.412;2023-06-14T02:48:36;15.60;;;7.60;;
27794;SDS011;15176;50.844;4.412;2023-06-14T02:51:02;15.63;;;7.28;;
27794;SDS011;15176;50.844;4.412;2023-06-14T02:53:27;13.27;;;7.63;;
27794;SDS011;15176;50.844;4.412;2023-06-14T02:55:53;15.30;;;7.75;;
27794;SDS011;15176;50.844;4.412;2023-06-14T02:58:20;13.27;;;7.05;;
27794;SDS011;15176;50.844;4.412;2023-06-14T03:00:46;16.13;;;7.32;;
27794;SDS011;15176;50.844;4.412;2023-06-14T03:03:11;16.10;;;7.32;;
27794;SDS011;15176;50.844;4.412;2023-06-14T03:05:44;16.35;;;8.00;;
27794;SDS011;15176;50.844;4.412;2023-06-14T03:08:13;11.98;;;7.80;;
27794;SDS011;15176;50.844;4.412;2023-06-14T03:10:50;11.65;;;7.50;;
27794;SDS011;15176;50.844;4.412;2023-06-14T03:13:16;12.45;;;7.50;;
27794;SDS011;15176;50.844;4.412;2023-06-14T03:15:43;13.77;;;7.93;;
27794;SDS011;15176;50.844;4.412;2023-06-14T03:18:10;14.38;;;8.00;;
27794;SDS011;15176;50.844;4.412;2023-06-14T03:20:37;15.40;;;8.35;;
27794;SDS011;15176;50.844;4.412;2023-06-14T03:23:03;15.13;;;7.72;;
27794;SDS011;15176;50.844;4.412;2023-06-14T03:25:30;13.50;;;7.68;;
27794;SDS011;15176;50.844;4.412;2023-06-14T03:27:56;15.00;;;7.20;;
27794;SDS011;15176;50.844;4.412;2023-06-14T03:30:22;14.55;;;8.00;;
27794;SDS011;15176;50.844;4.412;2023-06-14T03:32:48;11.70;;;7.50;;
27794;SDS011;15176;50.844;4.412;2023-06-14T03:35:15;12.32;;;7.90;;
27794;SDS011;15176;50.844;4.412;2023-06-14T03:37:45;17.50;;;7.97;;
27794;SDS011;15176;50.844;4.412;2023-06-14T03:40:12;18.27;;;8.40;;
27794;SDS011;15176;50.844;4.412;2023-06-14T03:42:41;14.38;;;8.43;;
27794;SDS011;15176;50.844;4.412;2023-06-14T03:45:08;17.23;;;8.30;;
27794;SDS011;15176;50.844;4.412;2023-06-14T03:47:34;16.67;;;8.32;;
27794;SDS011;15176;50.844;4.412;2023-06-14T03:50:00;12.75;;;7.32;;
27794;SDS011;15176;50.844;4.412;2023-06-14T03:52:27;15.20;;;7.75;;
27794;SDS011;15176;50.844;4.412;2023-06-14T03:54:53;19.50;;;8.52;;
27794;SDS011;15176;50.844;4.412;2023-06-14T03:57:19;16.67;;;8.82;;
27794;SDS011;15176;50.844;4.412;2023-06-14T03:59:48;16.17;;;7.70;;
27794;SDS011;15176;50.844;4.412;2023-06-14T04:02:13;15.00;;;8.20;;
27794;SDS011;15176;50.844;4.412;2023-06-14T04:04:41;12.88;;;7.78;;
27794;SDS011;15176;50.844;4.412;2023-06-14T04:07:09;13.05;;;8.13;;
27794;SDS011;15176;50.844;4.412;2023-06-14T04:09:36;14.38;;;8.27;;
27794;SDS011;15176;50.844;4.412;2023-06-14T04:12:03;19.35;;;8.45;;
27794;SDS011;15176;50.844;4.412;2023-06-14T04:14:29;19.70;;;8.30;;
27794;SDS011;15176;50.844;4.412;2023-06-14T04:16:56;15.23;;;8.07;;
27794;SDS011;15176;50.844;4.412;2023-06-14T04:19:22;15.52;;;8.23;;
27794;SDS011;15176;50.844;4.412;2023-06-14T04:21:48;19.33;;;9.90;;
27794;SDS011;15176;50.844;4.412;2023-06-14T04:24:14;12.50;;;7.32;;
27794;SDS011;15176;50.844;4.412;2023-06-14T04:26:41;17.58;;;11.10;;
27794;SDS011;15176;50.844;4.412;2023-06-14T04:29:10;15.77;;;8.77;;
27794;SDS011;15176;50.844;4.412;2023-06-14T04:31:39;15.15;;;8.02;;
27794;SDS011;15176;50.844;4.412;2023-06-14T04:34:05;19.25;;;8.52;;
27794;SDS011;15176;50.844;4.412;2023-06-14T04:36:32;15.45;;;8.73;;
27794;SDS011;15176;50.844;4.412;2023-06-14T04:39:00;17.15;;;8.50;;
27794;SDS011;15176;50.844;4.412;2023-06-14T04:41:28;20.33;;;8.70;;
27794;SDS011;15176;50.844;4.412;2023-06-14T04:43:59;16.33;;;8.10;;
27794;SDS011;15176;50.844;4.412;2023-06-14T04:46:29;15.20;;;7.70;;
27794;SDS011;15176;50.844;4.412;2023-06-14T04:48:57;14.25;;;8.40;;
27794;SDS011;15176;50.844;4.412;2023-06-14T04:51:27;13.70;;;8.35;;
27794;SDS011;15176;50.844;4.412;2023-06-14T04:53:58;21.55;;;9.25;;
27794;SDS011;15176;50.844;4.412;2023-06-14T04:56:24;13.27;;;6.18;;
27794;SDS011;15176;50.844;4.412;2023-06-14T04:58:51;16.67;;;8.32;;
27794;SDS011;15176;50.844;4.412;2023-06-14T05:01:18;17.10;;;9.38;;
27794;SDS011;15176;50.844;4.412;2023-06-14T05:03:46;17.75;;;7.97;;
27794;SDS011;15176;50.844;4.412;2023-06-14T05:06:14;14.25;;;8.43;;
27794;SDS011;15176;50.844;4.412;2023-06-14T05:08:40;15.93;;;10.50;;
27794;SDS011;15176;50.844;4.412;2023-06-14T05:11:06;14.20;;;8.15;;
27794;SDS011;15176;50.844;4.412;2023-06-14T05:13:32;18.15;;;8.68;;
27794;SDS011;15176;50.844;4.412;2023-06-14T05:15:58;19.85;;;10.30;;
27794;SDS011;15176;50.844;4.412;2023-06-14T05:18:24;18.88;;;8.75;;
27794;SDS011;15176;50.844;4.412;2023-06-14T05:20:50;21.15;;;10.15;;
27794;SDS011;15176;50.844;4.412;2023-06-14T05:23:16;12.82;;;7.90;;
27794;SDS011;15176;50.844;4.412;2023-06-14T05:25:45;21.83;;;8.48;;
27794;SDS011;15176;50.844;4.412;2023-06-14T05:28:12;17.63;;;8.48;;
27794;SDS011;15176;50.844;4.412;2023-06-14T05:30:38;15.70;;;7.95;;
27794;SDS011;15176;50.844;4.412;2023-06-14T05:33:04;13.77;;;8.50;;
27794;SDS011;15176;50.844;4.412;2023-06-14T05:35:32;14.38;;;8.70;;
27794;SDS011;15176;50.844;4.412;2023-06-14T05:37:57;15.27;;;8.68;;
27794;SDS011;15176;50.844;4.412;2023-06-14T05:40:23;15.02;;;9.30;;
27794;SDS011;15176;50.844;4.412;2023-06-14T05:42:50;14.88;;;8.82;;
27794;SDS011;15176;50.844;4.412;2023-06-14T05:45:16;14.15;;;8.10;;
27794;SDS011;15176;50.844;4.412;2023-06-14T05:47:42;18.15;;;8.07;;
27794;SDS011;15176;50.844;4.412;2023-06-14T05:50:08;15.13;;;8.15;;
27794;SDS011;15176;50.844;4.412;2023-06-14T05:52:34;12.88;;;8.43;;
27794;SDS011;15176;50.844;4.412;2023-06-14T05:55:03;15.25;;;8.15;;
27794;SDS011;15176;50.844;4.412;2023-06-14T05:57:32;16.92;;;8.52;;
27794;SDS011;15176;50.844;4.412;2023-06-14T05:59:58;17.48;;;8.07;;
27794;SDS011;15176;50.844;4.412;2023-06-14T06:02:24;15.65;;;8.38;;
27794;SDS011;15176;50.844;4.412;2023-06-14T06:04:49;13.98;;;8.60;;
27794;SDS011;15176;50.844;4.412;2023-06-14T06:07:15;15.27;;;8.52;;
27794;SDS011;15176;50.844;4.412;2023-06-14T06:09:41;16.85;;;8.07;;
27794;SDS011;15176;50.844;4.412;2023-06-14T06:12:07;14.02;;;7.95;;
27794;SDS011;15176;50.844;4.412;2023-06-14T06:14:32;19.50;;;8.80;;
27794;SDS011;15176;50.844;4.412;2023-06-14T06:16:58;13.77;;;7.60;;
27794;SDS011;15176;50.844;4.412;2023-06-14T06:19:24;15.55;;;7.97;;
27794;SDS011;15176;50.844;4.412;2023-06-14T06:21:50;17.52;;;8.35;;
27794;SDS011;15176;50.844;4.412;2023-06-14T06:24:19;16.55;;;8.00;;
27794;SDS011;15176;50.844;4.412;2023-06-14T06:26:44;17.10;;;8.05;;
27794;SDS011;15176;50.844;4.412;2023-06-14T06:29:10;14.80;;;8.13;;
27794;SDS011;15176;50.844;4.412;2023-06-14T06:31:36;20.55;;;7.85;;
27794;SDS011;15176;50.844;4.412;2023-06-14T06:34:02;11.48;;;7.68;;
27794;SDS011;15176;50.844;4.412;2023-06-14T06:36:27;13.48;;;8.10;;
27794;SDS011;15176;50.844;4.412;2023-06-14T06:38:53;18.25;;;8.10;;
27794;SDS011;15176;50.844;4.412;2023-06-14T06:41:19;15.73;;;7.55;;
27794;SDS011;15176;50.844;4.412;2023-06-14T06:43:45;15.55;;;7.43;;
27794;SDS011;15176;50.844;4.412;2023-06-14T06:46:10;11.90;;;7.40;;
27794;SDS011;15176;50.844;4.412;2023-06-14T06:48:38;11.50;;;6.80;;
27794;SDS011;15176;50.844;4.412;2023-06-14T06:51:04;12.63;;;7.07;;
27794;SDS011;15176;50.844;4.412;2023-06-14T06:53:30;15.75;;;7.70;;
27794;SDS011;15176;50.844;4.412;2023-06-14T06:55:56;14.90;;;7.03;;
27794;SDS011;15176;50.844;4.412;2023-06-14T06:58:21;14.15;;;7.15;;
27794;SDS011;15176;50.844;4.412;2023-06-14T07:00:47;15.05;;;6.97;;
27794;SDS011;15176;50.844;4.412;2023-06-14T07:03:13;11.80;;;6.80;;
27794;SDS011;15176;50.844;4.412;2023-06-14T07:05:39;16.15;;;6.88;;
27794;SDS011;15176;50.844;4.412;2023-06-14T07:08:04;17.52;;;6.80;;
27794;SDS011;15176;50.844;4.412;2023-06-14T07:10:30;17.25;;;6.57;;
27794;SDS011;15176;50.844;4.412;2023-06-14T07:12:56;17.13;;;6.97;;
27794;SDS011;15176;50.844;4.412;2023-06-14T07:15:21;16.73;;;6.55;;
27794;SDS011;15176;50.844;4.412;2023-06-14T07:17:47;14.45;;;7.05;;
27794;SDS011;15176;50.844;4.412;2023-06-14T07:20:13;16.20;;;6.72;;
27794;SDS011;15176;50.844;4.412;2023-06-14T07:22:42;16.38;;;6.70;;
27794;SDS011;15176;50.844;4.412;2023-06-14T07:25:08;13.10;;;6.60;;
27794;SDS011;15176;50.844;4.412;2023-06-14T07:27:40;16.77;;;6.05;;
27794;SDS011;15176;50.844;4.412;2023-06-14T07:30:06;12.13;;;6.20;;
27794;SDS011;15176;50.844;4.412;2023-06-14T07:32:32;13.27;;;6.47;;
27794;SDS011;15176;50.844;4.412;2023-06-14T07:34:58;11.43;;;6.03;;
27794;SDS011;15176;50.844;4.412;2023-06-14T07:37:24;10.88;;;5.78;;
27794;SDS011;15176;50.844;4.412;2023-06-14T07:39:49;14.88;;;6.20;;
27794;SDS011;15176;50.844;4.412;2023-06-14T07:42:15;11.90;;;6.32;;
27794;SDS011;15176;50.844;4.412;2023-06-14T07:44:41;13.20;;;6.65;;
27794;SDS011;15176;50.844;4.412;2023-06-14T07:47:07;18.80;;;6.00;;
27794;SDS011;15176;50.844;4.412;2023-06-14T07:49:38;11.80;;;6.00;;
27794;SDS011;15176;50.844;4.412;2023-06-14T07:52:03;9.00;;;5.97;;
27794;SDS011;15176;50.844;4.412;2023-06-14T07:54:30;10.00;;;6.10;;
27794;SDS011;15176;50.844;4.412;2023-06-14T07:56:57;23.80;;;6.60;;
27794;SDS011;15176;50.844;4.412;2023-06-14T07:59:27;11.77;;;5.97;;
27794;SDS011;15176;50.844;4.412;2023-06-14T08:01:52;14.18;;;6.60;;
27794;SDS011;15176;50.844;4.412;2023-06-14T08:04:18;14.70;;;6.10;;
27794;SDS011;15176;50.844;4.412;2023-06-14T08:06:44;13.60;;;5.78;;
27794;SDS011;15176;50.844;4.412;2023-06-14T08:09:10;12.75;;;6.40;;
27794;SDS011;15176;50.844;4.412;2023-06-14T08:11:37;15.55;;;6.18;;
27794;SDS011;15176;50.844;4.412;2023-06-14T08:14:03;14.38;;;6.35;;
27794;SDS011;15176;50.844;4.412;2023-06-14T08:16:29;11.13;;;5.95;;
27794;SDS011;15176;50.844;4.412;2023-06-14T08:18:56;12.60;;;5.18;;
27794;SDS011;15176;50.844;4.412;2023-06-14T08:21:22;12.77;;;5.95;;
27794;SDS011;15176;50.844;4.412;2023-06-14T08:23:57;17.30;;;6.05;;
27794;SDS011;15176;50.844;4.412;2023-06-14T08:26:32;16.10;;;5.80;;
27794;SDS011;15176;50.844;4.412;2023-06-14T08:29:01;14.73;;;6.68;;
27794;SDS011;15176;50.844;4.412;2023-06-14T08:31:27;23.05;;;6.78;;
27794;SDS011;15176;50.844;4.412;2023-06-14T08:33:52;16.70;;;5.97;;
27794;SDS011;15176;50.844;4.412;2023-06-14T08:36:18;14.65;;;6.18;;
27794;SDS011;15176;50.844;4.412;2023-06-14T08:38:45;18.13;;;5.88;;
27794;SDS011;15176;50.844;4.412;2023-06-14T08:41:11;13.32;;;6.03;;
27794;SDS011;15176;50.844;4.412;2023-06-14T08:43:38;24.38;;;6.45;;
27794;SDS011;15176;50.844;4.412;2023-06-14T08:46:04;18.83;;;6.38;;
27794;SDS011;15176;50.844;4.412;2023-06-14T08:48:36;10.45;;;6.10;;
27794;SDS011;15176;50.844;4.412;2023-06-14T08:51:02;15.52;;;5.68;;
27794;SDS011;15176;50.844;4.412;2023-06-14T08:53:32;11.82;;;5.90;;
27794;SDS011;15176;50.844;4.412;2023-06-14T08:56:01;11.82;;;6.13;;
27794;SDS011;15176;50.844;4.412;2023-06-14T08:58:33;11.60;;;5.60;;
27794;SDS011;15176;50.844;4.412;2023-06-14T09:01:01;11.00;;;5.35;;
27794;SDS011;15176;50.844;4.412;2023-06-14T09:03:27;9.20;;;5.20;;
27794;SDS011;15176;50.844;4.412;2023-06-14T09:05:59;14.88;;;5.80;;
27794;SDS011;15176;50.844;4.412;2023-06-14T09:08:26;15.27;;;10.02;;
27794;SDS011;15176;50.844;4.412;2023-06-14T09:10:55;20.48;;;7.20;;
27794;SDS011;15176;50.844;4.412;2023-06-14T09:13:22;17.35;;;6.40;;
27794;SDS011;15176;50.844;4.412;2023-06-14T09:15:48;14.50;;;6.22;;
27794;SDS011;15176;50.844;4.412;2023-06-14T09:18:14;14.98;;;6.47;;
27794;SDS011;15176;50.844;4.412;2023-06-14T09:20:40;11.35;;;5.90;;
27794;SDS011;15176;50.844;4.412;2023-06-14T09:23:06;13.25;;;5.68;;
27794;SDS011;15176;50.844;4.412;2023-06-14T09:25:41;12.15;;;5.70;;
27794;SDS011;15176;50.844;4.412;2023-06-14T09:28:08;12.40;;;5.88;;
27794;SDS011;15176;50.844;4.412;2023-06-14T09:30:33;17.77;;;5.57;;
27794;SDS011;15176;50.844;4.412;2023-06-14T09:33:00;13.65;;;5.78;;
27794;SDS011;15176;50.844;4.412;2023-06-14T09:35:26;13.55;;;5.78;;
27794;SDS011;15176;50.844;4.412;2023-06-14T09:37:54;12.50;;;6.47;;
27794;SDS011;15176;50.844;4.412;2023-06-14T09:40:20;16.60;;;5.82;;
27794;SDS011;15176;50.844;4.412;2023-06-14T09:42:47;11.73;;;6.30;;
27794;SDS011;15176;50.844;4.412;2023-06-14T09:45:13;11.88;;;5.70;;
27794;SDS011;15176;50.844;4.412;2023-06-14T09:47:44;10.65;;;6.10;;
27794;SDS011;15176;50.844;4.412;2023-06-14T09:50:12;12.32;;;6.03;;
27794;SDS011;15176;50.844;4.412;2023-06-14T09:52:38;12.15;;;5.22;;
27794;SDS011;15176;50.844;4.412;2023-06-14T09:55:05;12.30;;;5.55;;
27794;SDS011;15176;50.844;4.412;2023-06-14T09:57:37;13.90;;;5.82;;
27794;SDS011;15176;50.844;4.412;2023-06-14T10:00:07;9.40;;;5.30;;
27794;SDS011;15176;50.844;4.412;2023-06-14T10:02:43;14.07;;;7.57;;
27794;SDS011;15176;50.844;4.412;2023-06-14T10:05:16;11.40;;;5.30;;
27794;SDS011;15176;50.844;4.412;2023-06-14T10:07:48;13.13;;;5.93;;
27794;SDS011;15176;50.844;4.412;2023-06-14T10:10:22;14.18;;;5.32;;
27794;SDS011;15176;50.844;4.412;2023-06-14T10:12:48;8.93;;;5.65;;
27794;SDS011;15176;50.844;4.412;2023-06-14T10:15:23;12.05;;;5.57;;
27794;SDS011;15176;50.844;4.412;2023-06-14T10:18:16;12.38;;;5.57;;
27794;SDS011;15176;50.844;4.412;2023-06-14T10:23:37;13.23;;;4.88;;
27794;SDS011;15176;50.844;4.412;2023-06-14T10:26:08;11.30;;;5.85;;
27794;SDS011;15176;50.844;4.412;2023-06-14T10:28:37;16.73;;;5.90;;
27794;SDS011;15176;50.844;4.412;2023-06-14T10:31:05;15.93;;;6.03;;
27794;SDS011;15176;50.844;4.412;2023-06-14T10:33:40;10.57;;;5.13;;
27794;SDS011;15176;50.844;4.412;2023-06-14T10:41:39;12.63;;;5.65;;
27794;SDS011;15176;50.844;4.412;2023-06-14T10:46:47;10.00;;;5.30;;
27794;SDS011;15176;50.844;4.412;2023-06-14T10:49:17;15.82;;;9.70;;
27794;SDS011;15176;50.844;4.412;2023-06-14T10:51:44;10.05;;;4.47;;
27794;SDS011;15176;50.844;4.412;2023-06-14T10:54:17;11.95;;;4.85;;
27794;SDS011;15176;50.844;4.412;2023-06-14T10:56:46;10.50;;;5.20;;
27794;SDS011;15176;50.844;4.412;2023-06-14T10:59:14;20.83;;;6.47;;
27794;SDS011;15176;50.844;4.412;2023-06-14T11:04:31;11.02;;;5.78;;
27794;SDS011;15176;50.844;4.412;2023-06-14T11:07:21;12.38;;;4.80;;
27794;SDS011;15176;50.844;4.412;2023-06-14T11:10:19;17.05;;;4.97;;
27794;SDS011;15176;50.844;4.412;2023-06-14T11:12:48;7.07;;;3.85;;
27794;SDS011;15176;50.844;4.412;2023-06-14T11:15:14;12.07;;;5.53;;
27794;SDS011;15176;50.844;4.412;2023-06-14T11:17:50;10.38;;;4.80;;
27794;SDS011;15176;50.844;4.412;2023-06-14T11:20:18;16.10;;;6.72;;
27794;SDS011;15176;50.844;4.412;2023-06-14T11:22:44;13.75;;;4.93;;
27794;SDS011;15176;50.844;4.412;2023-06-14T11:25:13;16.13;;;5.72;;
27794;SDS011;15176;50.844;4.412;2023-06-14T11:27:43;9.38;;;4.57;;
27794;SDS011;15176;50.844;4.412;2023-06-14T11:30:09;10.23;;;4.68;;
27794;SDS011;15176;50.844;4.412;2023-06-14T11:32:36;20.10;;;4.53;;
27794;SDS011;15176;50.844;4.412;2023-06-14T11:35:03;9.23;;;4.22;;
27794;SDS011;15176;50.844;4.412;2023-06-14T11:37:33;11.68;;;4.30;;
27794;SDS011;15176;50.844;4.412;2023-06-14T11:39:59;10.68;;;4.50;;
27794;SDS011;15176;50.844;4.412;2023-06-14T11:42:27;11.30;;;4.53;;
27794;SDS011;15176;50.844;4.412;2023-06-14T11:44:54;14.52;;;4.30;;
27794;SDS011;15176;50.844;4.412;2023-06-14T11:47:20;7.95;;;3.95;;
27794;SDS011;15176;50.844;4.412;2023-06-14T11:49:47;7.60;;;4.50;;
27794;SDS011;15176;50.844;4.412;2023-06-14T11:52:13;10.32;;;5.03;;
27794;SDS011;15176;50.844;4.412;2023-06-14T11:54:39;7.32;;;4.00;;
27794;SDS011;15176;50.844;4.412;2023-06-14T11:57:06;10.13;;;4.18;;
27794;SDS011;15176;50.844;4.412;2023-06-14T11:59:43;11.80;;;4.40;;
27794;SDS011;15176;50.844;4.412;2023-06-14T12:02:09;11.60;;;4.60;;
27794;SDS011;15176;50.844;4.412;2023-06-14T12:04:43;9.65;;;4.55;;
27794;SDS011;15176;50.844;4.412;2023-06-14T12:07:12;14.20;;;4.38;;
27794;SDS011;15176;50.844;4.412;2023-06-14T12:10:04;10.60;;;3.90;;
27794;SDS011;15176;50.844;4.412;2023-06-14T12:12:34;8.77;;;4.10;;
27794;SDS011;15176;50.844;4.412;2023-06-14T12:15:02;11.90;;;4.00;;
27794;SDS011;15176;50.844;4.412;2023-06-14T12:17:31;10.73;;;4.65;;
27794;SDS011;15176;50.844;4.412;2023-06-14T12:20:13;9.95;;;4.30;;
27794;SDS011;15176;50.844;4.412;2023-06-14T12:22:54;8.52;;;4.13;;
27794;SDS011;15176;50.844;4.412;2023-06-14T12:25:30;14.18;;;4.20;;
27794;SDS011;15176;50.844;4.412;2023-06-14T12:27:58;14.73;;;3.88;;
27794;SDS011;15176;50.844;4.412;2023-06-14T12:30:28;9.38;;;3.88;;
27794;SDS011;15176;50.844;4.412;2023-06-14T12:32:55;9.23;;;3.70;;
27794;SDS011;15176;50.844;4.412;2023-06-14T12:35:21;12.90;;;4.05;;
27794;SDS011;15176;50.844;4.412;2023-06-14T12:37:46;14.73;;;4.55;;
27794;SDS011;15176;50.844;4.412;2023-06-14T12:40:12;8.98;;;4.22;;
27794;SDS011;15176;50.844;4.412;2023-06-14T12:42:38;16.75;;;4.28;;
27794;SDS011;15176;50.844;4.412;2023-06-14T12:45:05;10.30;;;4.22;;
27794;SDS011;15176;50.844;4.412;2023-06-14T12:47:31;6.25;;;4.05;;
27794;SDS011;15176;50.844;4.412;2023-06-14T12:49:57;11.23;;;3.58;;
27794;SDS011;15176;50.844;4.412;2023-06-14T12:52:22;9.07;;;3.70;;
27794;SDS011;15176;50.844;4.412;2023-06-14T12:54:48;11.70;;;3.53;;
27794;SDS011;15176;50.844;4.412;2023-06-14T12:57:17;13.35;;;3.80;;
27794;SDS011;15176;50.844;4.412;2023-06-14T12:59:43;17.48;;;4.07;;
27794;SDS011;15176;50.844;4.412;2023-06-14T13:04:39;8.13;;;3.50;;
27794;SDS011;15176;50.844;4.412;2023-06-14T13:07:06;10.73;;;3.75;;
27794;SDS011;15176;50.844;4.412;2023-06-14T13:09:32;10.30;;;3.90;;
27794;SDS011;15176;50.844;4.412;2023-06-14T13:11:58;7.10;;;3.30;;
27794;SDS011;15176;50.844;4.412;2023-06-14T13:14:24;11.63;;;3.40;;
27794;SDS011;15176;50.844;4.412;2023-06-14T13:16:49;8.07;;;3.40;;
27794;SDS011;15176;50.844;4.412;2023-06-14T13:19:15;12.48;;;3.53;;
27794;SDS011;15176;50.844;4.412;2023-06-14T13:21:41;8.50;;;3.40;;
27794;SDS011;15176;50.844;4.412;2023-06-14T13:24:07;8.48;;;3.50;;
27794;SDS011;15176;50.844;4.412;2023-06-14T13:26:33;9.90;;;3.63;;
27794;SDS011;15176;50.844;4.412;2023-06-14T13:28:59;14.45;;;3.63;;
27794;SDS011;15176;50.844;4.412;2023-06-14T13:31:25;7.97;;;3.13;;
27794;SDS011;15176;50.844;4.412;2023-06-14T13:33:51;6.40;;;3.45;;
27794;SDS011;15176;50.844;4.412;2023-06-14T13:36:16;6.68;;;3.10;;
27794;SDS011;15176;50.844;4.412;2023-06-14T13:38:42;5.78;;;2.97;;
27794;SDS011;15176;50.844;4.412;2023-06-14T13:41:08;7.05;;;3.05;;
27794;SDS011;15176;50.844;4.412;2023-06-14T13:43:34;7.97;;;3.20;;
27794;SDS011;15176;50.844;4.412;2023-06-14T13:45:59;10.45;;;3.08;;
27794;SDS011;15176;50.844;4.412;2023-06-14T13:48:25;7.03;;;3.13;;
27794;SDS011;15176;50.844;4.412;2023-06-14T13:50:51;7.25;;;2.90;;
27794;SDS011;15176;50.844;4.412;2023-06-14T13:53:16;15.85;;;3.00;;
27794;SDS011;15176;50.844;4.412;2023-06-14T13:55:42;7.32;;;2.72;;
27794;SDS011;15176;50.844;4.412;2023-06-14T13:58:08;5.75;;;2.55;;
27794;SDS011;15176;50.844;4.412;2023-06-14T14:00:34;8.98;;;3.15;;
27794;SDS011;15176;50.844;4.412;2023-06-14T14:03:02;8.43;;;3.35;;
27794;SDS011;15176;50.844;4.412;2023-06-14T14:05:29;5.35;;;2.40;;
27794;SDS011;15176;50.844;4.412;2023-06-14T14:07:56;4.90;;;2.50;;
27794;SDS011;15176;50.844;4.412;2023-06-14T14:10:22;6.85;;;2.50;;
27794;SDS011;15176;50.844;4.412;2023-06-14T14:12:50;9.10;;;2.63;;
27794;SDS011;15176;50.844;4.412;2023-06-14T14:15:16;8.32;;;2.30;;
27794;SDS011;15176;50.844;4.412;2023-06-14T14:17:42;4.63;;;2.20;;
27794;SDS011;15176;50.844;4.412;2023-06-14T14:20:08;4.72;;;2.30;;
27794;SDS011;15176;50.844;4.412;2023-06-14T14:22:34;7.30;;;2.47;;
27794;SDS011;15176;50.844;4.412;2023-06-14T14:24:59;4.45;;;2.10;;
27794;SDS011;15176;50.844;4.412;2023-06-14T14:27:25;8.68;;;2.00;;
27794;SDS011;15176;50.844;4.412;2023-06-14T14:29:51;9.35;;;2.00;;
27794;SDS011;15176;50.844;4.412;2023-06-14T14:32:17;9.43;;;2.20;;
27794;SDS011;15176;50.844;4.412;2023-06-14T14:34:42;6.25;;;1.75;;
27794;SDS011;15176;50.844;4.412;2023-06-14T14:37:08;4.43;;;2.10;;
27794;SDS011;15176;50.844;4.412;2023-06-14T14:39:34;4.57;;;1.70;;
27794;SDS011;15176;50.844;4.412;2023-06-14T14:41:59;4.47;;;1.70;;
27794;SDS011;15176;50.844;4.412;2023-06-14T14:44:26;7.32;;;2.00;;
27794;SDS011;15176;50.844;4.412;2023-06-14T14:46:52;5.28;;;1.75;;
27794;SDS011;15176;50.844;4.412;2023-06-14T14:49:18;7.60;;;1.90;;
27794;SDS011;15176;50.844;4.412;2023-06-14T14:51:44;8.20;;;2.38;;
27794;SDS011;15176;50.844;4.412;2023-06-14T14:54:10;4.25;;;1.80;;
27794;SDS011;15176;50.844;4.412;2023-06-14T14:56:37;7.60;;;2.28;;
27794;SDS011;15176;50.844;4.412;2023-06-14T14:59:03;12.90;;;2.58;;